Nypd 317 — WDI5352 — position and weather

sailwx.info

Track history (hours):
 
Tides and Currents Weather Stations Pressure Air Temp Water Temp Dewpoint Dewpoint Depression Visibility Wind Speed Wind Dir Waves Ship Positions

Nypd 317

Owner: New York City Police Department, Brooklyn, NY. More information available from US FCC via Universal Licensing System.

Last reported at 2018-Jul-05 04:48 UTC. Time now 2018-Jul-15 19:11 UTC.
Position N 40°39' W 074°02'.
Warning: this ship's position is 10 days out of date.

Length 11 m; draft 1 m.

Type: Law enforcement. MMSI: 367707680.

Date/timePositionNaut miles runAvg speedWind from/ knotsBaromVisibWave heightAir tempDewpointWater temp
2018-Jul-05 04:48N 40°39' W 074°02'2 8.4
2018-Jul-05 04:30N 40°41' W 074°01'2 3.7
2018-Jul-05 04:00N 40°43' W 073°59'0 0.0
2018-Jul-05 03:29N 40°43' W 073°59'0 0.1
2018-Jul-05 03:00N 40°43' W 073°59'0 0.1
2018-Jul-05 02:29N 40°43' W 073°59'0 0.0
2018-Jul-05 02:00N 40°43' W 073°59'1 1.2
2018-Jul-05 01:30N 40°43' W 073°59'0 0.8
2018-Jul-05 01:00N 40°43' W 073°59'0 0.1
2018-Jul-05 00:31N 40°43' W 073°59'0 0.2
2018-Jul-05 00:00N 40°43' W 073°59'0 0.1
2018-Jul-04 23:30N 40°43' W 073°59'0 0.1
2018-Jul-04 23:01N 40°43' W 073°59'0 0.0
2018-Jul-04 22:30N 40°43' W 073°59'0 0.0
2018-Jul-04 22:00N 40°43' W 073°59'0 0.0
2018-Jul-04 21:30N 40°43' W 073°59'4 8.8
2018-Jul-04 21:00N 40°39' W 074°02'0 0.0
2018-Jul-04 20:30N 40°39' W 074°02'0 0.0
2018-Jul-04 04:36N 40°39' W 074°02'0 0.3
2018-Jul-04 04:31N 40°39' W 074°02'1 2.8
2018-Jul-04 04:00N 40°40' W 074°01'0 0.0
2018-Jul-04 03:30N 40°40' W 074°01'0 0.0
2018-Jul-04 03:00N 40°40' W 074°01'0 0.0
2018-Jul-04 02:30N 40°40' W 074°01'0 0.0
2018-Jul-04 02:00N 40°40' W 074°01'0 0.0
2018-Jul-04 01:30N 40°40' W 074°01'0 0.0
2018-Jul-04 01:00N 40°40' W 074°01'0 0.0
2018-Jul-04 00:30N 40°40' W 074°01'0 0.0
2018-Jul-04 00:00N 40°40' W 074°01'0 0.0
2018-Jul-03 23:30N 40°40' W 074°01'0 0.0
2018-Jul-03 22:59N 40°40' W 074°01'0 0.0
2018-Jul-03 22:30N 40°40' W 074°01'0 0.0
2018-Jul-03 22:00N 40°40' W 074°01'0 0.0
2018-Jul-03 21:30N 40°40' W 074°01'0 0.0
2018-Jul-03 21:00N 40°40' W 074°01'0 0.0
2018-Jul-03 20:29N 40°40' W 074°01'0 0.9
2018-Jul-03 20:00N 40°40' W 074°01'2 0.7
2018-Jul-03 17:17N 40°39' W 074°02'1 5.3
2018-Jul-03 17:00N 40°40' W 074°01'5 9.8
2018-Jul-03 16:29N 40°45' W 073°58'510.1
2018-Jul-03 16:00N 40°40' W 074°01'0 0.9
2018-Jul-03 15:31N 40°40' W 074°01'0 0.7
2018-Jul-03 15:00N 40°40' W 074°01'2 0.1
2018-Jul-02 15:34N 40°39' W 074°02'0 0.4
2018-Jul-02 15:30N 40°39' W 074°02'8 0.3
2018-Jul-01 14:07N 40°46' W 073°57'329.9
2018-Jul-01 14:00N 40°42' W 073°59'4 1.2
2018-Jul-01 10:25N 40°39' W 074°02'0 0.0
2018-Jul-01 10:00N 40°39' W 074°02'0 0.0
2018-Jul-01 09:30N 40°39' W 074°02'0 0.0
2018-Jul-01 09:00N 40°39' W 074°02'0 0.0
2018-Jul-01 08:30N 40°39' W 074°02'0 0.0
2018-Jul-01 08:00N 40°39' W 074°02'0 0.0
2018-Jul-01 07:30N 40°39' W 074°02'0 0.0
2018-Jul-01 06:59N 40°39' W 074°02'0 0.0
2018-Jul-01 06:30N 40°39' W 074°02'0 0.0
2018-Jul-01 06:00N 40°39' W 074°02'0 0.0
2018-Jul-01 05:29N 40°39' W 074°02'0 0.0
2018-Jul-01 04:57N 40°39' W 074°02'0 0.0
2018-Jul-01 04:30N 40°39' W 074°02'0 0.0
2018-Jul-01 04:00N 40°39' W 074°02'5 9.4
2018-Jul-01 03:31N 40°43' W 073°59'3 0.2
2018-Jun-30 14:55N 40°45' W 073°57'717.0
2018-Jun-30 14:29N 40°39' W 074°02'0 0.0
2018-Jun-29 23:37N 40°39' W 074°02'0 0.1
2018-Jun-29 23:30N 40°39' W 074°02'8 1.8
2018-Jun-29 18:50N 40°31' W 074°06'723.1
2018-Jun-29 18:31N 40°38' W 074°03'  
2018-Jun-27 13:42N 40°42' W 074°01'3 0.2
2018-Jun-26 21:29N 40°39' W 074°02'2 3.5
2018-Jun-26 21:01N 40°40' W 074°01'  
Track history (hours):
 
Tides and Currents Weather Stations Pressure Air Temp Water Temp Dewpoint Dewpoint Depression Visibility Wind Speed Wind Dir Waves Ship Positions

Nypd 317

Owner: New York City Police Department, Brooklyn, NY. More information available from US FCC via Universal Licensing System.

Last reported at 2018-Jul-05 04:48 UTC. Time now 2018-Jul-15 19:11 UTC.
Position N 40°39' W 074°02'.
Warning: this ship's position is 10 days out of date.

Length 11 m; draft 1 m.

Type: Law enforcement. MMSI: 367707680.

Date/timePositionNaut miles runAvg speedWind from/ knotsBaromVisibWave heightAir tempDewpointWater temp
2018-Jul-05 04:48N 40°39' W 074°02'2 8.4
2018-Jul-05 04:30N 40°41' W 074°01'2 3.7
2018-Jul-05 04:00N 40°43' W 073°59'0 0.0
2018-Jul-05 03:29N 40°43' W 073°59'0 0.1
2018-Jul-05 03:00N 40°43' W 073°59'0 0.1
2018-Jul-05 02:29N 40°43' W 073°59'0 0.0
2018-Jul-05 02:00N 40°43' W 073°59'1 1.2
2018-Jul-05 01:30N 40°43' W 073°59'0 0.8
2018-Jul-05 01:00N 40°43' W 073°59'0 0.1
2018-Jul-05 00:31N 40°43' W 073°59'0 0.2
2018-Jul-05 00:00N 40°43' W 073°59'0 0.1
2018-Jul-04 23:30N 40°43' W 073°59'0 0.1
2018-Jul-04 23:01N 40°43' W 073°59'0 0.0
2018-Jul-04 22:30N 40°43' W 073°59'0 0.0
2018-Jul-04 22:00N 40°43' W 073°59'0 0.0
2018-Jul-04 21:30N 40°43' W 073°59'4 8.8
2018-Jul-04 21:00N 40°39' W 074°02'0 0.0
2018-Jul-04 20:30N 40°39' W 074°02'0 0.0
2018-Jul-04 04:36N 40°39' W 074°02'0 0.3
2018-Jul-04 04:31N 40°39' W 074°02'1 2.8
2018-Jul-04 04:00N 40°40' W 074°01'0 0.0
2018-Jul-04 03:30N 40°40' W 074°01'0 0.0
2018-Jul-04 03:00N 40°40' W 074°01'0 0.0
2018-Jul-04 02:30N 40°40' W 074°01'0 0.0
2018-Jul-04 02:00N 40°40' W 074°01'0 0.0
2018-Jul-04 01:30N 40°40' W 074°01'0 0.0
2018-Jul-04 01:00N 40°40' W 074°01'0 0.0
2018-Jul-04 00:30N 40°40' W 074°01'0 0.0
2018-Jul-04 00:00N 40°40' W 074°01'0 0.0
2018-Jul-03 23:30N 40°40' W 074°01'0 0.0
2018-Jul-03 22:59N 40°40' W 074°01'0 0.0
2018-Jul-03 22:30N 40°40' W 074°01'0 0.0
2018-Jul-03 22:00N 40°40' W 074°01'0 0.0
2018-Jul-03 21:30N 40°40' W 074°01'0 0.0
2018-Jul-03 21:00N 40°40' W 074°01'0 0.0
2018-Jul-03 20:29N 40°40' W 074°01'0 0.9
2018-Jul-03 20:00N 40°40' W 074°01'2 0.7
2018-Jul-03 17:17N 40°39' W 074°02'1 5.3
2018-Jul-03 17:00N 40°40' W 074°01'5 9.8
2018-Jul-03 16:29N 40°45' W 073°58'510.1
2018-Jul-03 16:00N 40°40' W 074°01'0 0.9
2018-Jul-03 15:31N 40°40' W 074°01'0 0.7
2018-Jul-03 15:00N 40°40' W 074°01'2 0.1
2018-Jul-02 15:34N 40°39' W 074°02'0 0.4
2018-Jul-02 15:30N 40°39' W 074°02'8 0.3
2018-Jul-01 14:07N 40°46' W 073°57'329.9
2018-Jul-01 14:00N 40°42' W 073°59'4 1.2
2018-Jul-01 10:25N 40°39' W 074°02'0 0.0
2018-Jul-01 10:00N 40°39' W 074°02'0 0.0
2018-Jul-01 09:30N 40°39' W 074°02'0 0.0
2018-Jul-01 09:00N 40°39' W 074°02'0 0.0
2018-Jul-01 08:30N 40°39' W 074°02'0 0.0
2018-Jul-01 08:00N 40°39' W 074°02'0 0.0
2018-Jul-01 07:30N 40°39' W 074°02'0 0.0
2018-Jul-01 06:59N 40°39' W 074°02'0 0.0
2018-Jul-01 06:30N 40°39' W 074°02'0 0.0
2018-Jul-01 06:00N 40°39' W 074°02'0 0.0
2018-Jul-01 05:29N 40°39' W 074°02'0 0.0
2018-Jul-01 04:57N 40°39' W 074°02'0 0.0
2018-Jul-01 04:30N 40°39' W 074°02'0 0.0
2018-Jul-01 04:00N 40°39' W 074°02'5 9.4
2018-Jul-01 03:31N 40°43' W 073°59'3 0.2
2018-Jun-30 14:55N 40°45' W 073°57'717.0
2018-Jun-30 14:29N 40°39' W 074°02'0 0.0
2018-Jun-29 23:37N 40°39' W 074°02'0 0.1
2018-Jun-29 23:30N 40°39' W 074°02'8 1.8
2018-Jun-29 18:50N 40°31' W 074°06'723.1
2018-Jun-29 18:31N 40°38' W 074°03'  
2018-Jun-27 13:42N 40°42' W 074°01'3 0.2
2018-Jun-26 21:29N 40°39' W 074°02'2 3.5
2018-Jun-26 21:01N 40°40' W 074°01'  

Dump ship's entire track history